sensor_id;sensor_type;location;lat;lon;timestamp;temperature;humidity
10536;DHT22;5316;49.538;8.352;2023-07-20T03:46:29;18.60;46.70
10536;DHT22;5316;49.538;8.352;2023-07-20T03:48:56;18.70;19.60
10536;DHT22;5316;49.538;8.352;2023-07-20T03:51:24;18.70;93.60
10536;DHT22;5316;49.538;8.352;2023-07-20T03:53:51;18.70;74.90
10536;DHT22;5316;49.538;8.352;2023-07-20T03:56:18;18.60;99.90
10536;DHT22;5316;49.538;8.352;2023-07-20T03:58:45;18.60;99.90
10536;DHT22;5316;49.538;8.352;2023-07-20T04:01:14;18.50;99.90
10536;DHT22;5316;49.538;8.352;2023-07-20T04:03:43;18.70;99.90
10536;DHT22;5316;49.538;8.352;2023-07-20T04:06:11;18.50;99.90
10536;DHT22;5316;49.538;8.352;2023-07-20T04:08:39;18.50;99.90
10536;DHT22;5316;49.538;8.352;2023-07-20T04:21:14;18.60;1.00
10536;DHT22;5316;49.538;8.352;2023-07-20T04:23:44;18.60;1.00
10536;DHT22;5316;49.538;8.352;2023-07-20T04:26:11;18.50;1.00
10536;DHT22;5316;49.538;8.352;2023-07-20T04:28:38;18.50;1.00
10536;DHT22;5316;49.538;8.352;2023-07-20T04:31:11;18.50;1.00
10536;DHT22;5316;49.538;8.352;2023-07-20T04:33:38;18.50;1.00
10536;DHT22;5316;49.538;8.352;2023-07-20T04:36:05;18.50;1.00
10536;DHT22;5316;49.538;8.352;2023-07-20T04:38:34;18.50;28.70
10536;DHT22;5316;49.538;8.352;2023-07-20T04:41:01;18.60;55.80
10536;DHT22;5316;49.538;8.352;2023-07-20T04:43:29;18.70;1.00
10536;DHT22;5316;49.538;8.352;2023-07-20T04:45:56;18.70;1.00
10536;DHT22;5316;49.538;8.352;2023-07-20T04:48:24;18.70;99.90
10536;DHT22;5316;49.538;8.352;2023-07-20T04:50:51;18.80;1.00
10536;DHT22;5316;49.538;8.352;2023-07-20T04:53:18;18.90;1.00
10536;DHT22;5316;49.538;8.352;2023-07-20T04:55:50;18.90;99.90
10536;DHT22;5316;49.538;8.352;2023-07-20T04:58:20;18.90;99.90
10536;DHT22;5316;49.538;8.352;2023-07-20T05:00:48;19.00;99.90
10536;DHT22;5316;49.538;8.352;2023-07-20T05:03:15;19.00;99.90
10536;DHT22;5316;49.538;8.352;2023-07-20T05:05:42;19.10;99.90
10536;DHT22;5316;49.538;8.352;2023-07-20T05:08:09;19.00;99.90
10536;DHT22;5316;49.538;8.352;2023-07-20T05:10:36;19.00;99.90
10536;DHT22;5316;49.538;8.352;2023-07-20T05:13:07;19.10;99.90
10536;DHT22;5316;49.538;8.352;2023-07-20T05:15:34;19.00;99.90
10536;DHT22;5316;49.538;8.352;2023-07-20T05:18:01;19.00;1.00
10536;DHT22;5316;49.538;8.352;2023-07-20T05:20:28;19.10;1.00
10536;DHT22;5316;49.538;8.352;2023-07-20T05:22:57;19.20;1.00
10536;DHT22;5316;49.538;8.352;2023-07-20T05:25:24;19.30;99.90
10536;DHT22;5316;49.538;8.352;2023-07-20T05:27:52;19.30;99.90
10536;DHT22;5316;49.538;8.352;2023-07-20T05:30:22;19.20;99.90
10536;DHT22;5316;49.538;8.352;2023-07-20T05:32:49;19.30;99.90
10536;DHT22;5316;49.538;8.352;2023-07-20T05:35:21;19.20;99.90
10536;DHT22;5316;49.538;8.352;2023-07-20T05:37:49;19.30;1.00
10536;DHT22;5316;49.538;8.352;2023-07-20T05:40:16;19.30;99.90
10536;DHT22;5316;49.538;8.352;2023-07-20T05:42:44;19.40;99.90
10536;DHT22;5316;49.538;8.352;2023-07-20T05:45:13;19.50;99.90
10536;DHT22;5316;49.538;8.352;2023-07-20T05:47:42;19.50;99.90
10536;DHT22;5316;49.538;8.352;2023-07-20T05:50:10;19.60;52.20
10536;DHT22;5316;49.538;8.352;2023-07-20T05:52:38;19.60;99.90
10536;DHT22;5316;49.538;8.352;2023-07-20T05:55:06;19.60;99.90
10536;DHT22;5316;49.538;8.352;2023-07-20T05:57:35;19.80;99.90
10536;DHT22;5316;49.538;8.352;2023-07-20T06:00:09;19.80;99.90
10536;DHT22;5316;49.538;8.352;2023-07-20T06:03:09;19.90;99.90
10536;DHT22;5316;49.538;8.352;2023-07-20T06:05:50;19.90;99.90
10536;DHT22;5316;49.538;8.352;2023-07-20T06:08:18;19.90;99.90
10536;DHT22;5316;49.538;8.352;2023-07-20T06:10:50;19.80;99.90
10536;DHT22;5316;49.538;8.352;2023-07-20T06:13:24;19.90;44.70
10536;DHT22;5316;49.538;8.352;2023-07-20T06:15:52;19.90;1.00
10536;DHT22;5316;49.538;8.352;2023-07-20T06:18:21;19.90;1.30
10536;DHT22;5316;49.538;8.352;2023-07-20T06:20:49;20.00;1.00
10536;DHT22;5316;49.538;8.352;2023-07-20T06:23:17;20.00;1.00
10536;DHT22;5316;49.538;8.352;2023-07-20T06:25:44;20.00;1.00
10536;DHT22;5316;49.538;8.352;2023-07-20T06:28:11;20.00;99.90
10536;DHT22;5316;49.538;8.352;2023-07-20T06:30:38;20.00;1.00
10536;DHT22;5316;49.538;8.352;2023-07-20T06:33:14;20.10;99.90
10536;DHT22;5316;49.538;8.352;2023-07-20T08:49:17;22.40;99.90
10536;DHT22;5316;49.538;8.352;2023-07-20T08:52:07;22.40;99.90
10536;DHT22;5316;49.538;8.352;2023-07-20T08:54:40;22.30;99.90
10536;DHT22;5316;49.538;8.352;2023-07-20T08:57:08;22.40;99.90
10536;DHT22;5316;49.538;8.352;2023-07-20T08:59:40;22.50;99.90
10536;DHT22;5316;49.538;8.352;2023-07-20T09:02:15;22.30;99.90
10536;DHT22;5316;49.538;8.352;2023-07-20T09:04:57;22.50;99.90
10536;DHT22;5316;49.538;8.352;2023-07-20T09:07:31;22.50;99.90
10536;DHT22;5316;49.538;8.352;2023-07-20T09:10:10;22.80;99.90
10536;DHT22;5316;49.538;8.352;2023-07-20T09:12:48;22.90;99.90
10536;DHT22;5316;49.538;8.352;2023-07-20T09:15:25;23.10;99.90
10536;DHT22;5316;49.538;8.352;2023-07-20T09:18:01;23.40;95.80
10536;DHT22;5316;49.538;8.352;2023-07-20T09:20:33;23.60;29.20
10536;DHT22;5316;49.538;8.352;2023-07-20T09:23:04;23.70;1.00
10536;DHT22;5316;49.538;8.352;2023-07-20T09:25:33;23.70;1.00
10536;DHT22;5316;49.538;8.352;2023-07-20T09:28:03;23.60;1.00
10536;DHT22;5316;49.538;8.352;2023-07-20T09:30:30;23.40;1.00
10536;DHT22;5316;49.538;8.352;2023-07-20T09:32:58;23.20;1.00
10536;DHT22;5316;49.538;8.352;2023-07-20T09:35:26;23.20;1.00
10536;DHT22;5316;49.538;8.352;2023-07-20T09:37:58;23.00;1.00
10536;DHT22;5316;49.538;8.352;2023-07-20T09:40:26;22.90;16.90
10536;DHT22;5316;49.538;8.352;2023-07-20T09:42:56;22.90;8.80
10536;DHT22;5316;49.538;8.352;2023-07-20T09:45:29;23.10;10.10
10536;DHT22;5316;49.538;8.352;2023-07-20T09:48:03;23.20;12.40
10536;DHT22;5316;49.538;8.352;2023-07-20T11:10:17;25.70;1.00
10536;DHT22;5316;49.538;8.352;2023-07-20T11:22:59;26.20;1.00
10536;DHT22;5316;49.538;8.352;2023-07-20T15:20:36;35.40;99.90
10536;DHT22;5316;49.538;8.352;2023-07-20T15:33:19;34.20;99.90
10536;DHT22;5316;49.538;8.352;2023-07-20T15:38:59;34.90;99.90
10536;DHT22;5316;49.538;8.352;2023-07-20T15:41:28;35.40;99.90
10536;DHT22;5316;49.538;8.352;2023-07-20T15:43:59;35.90;99.90
10536;DHT22;5316;49.538;8.352;2023-07-20T19:42:41;24.50;1.00
10536;DHT22;5316;49.538;8.352;2023-07-20T19:45:14;24.50;1.00
10536;DHT22;5316;49.538;8.352;2023-07-20T19:47:46;24.50;1.00
10536;DHT22;5316;49.538;8.352;2023-07-20T19:50:12;24.40;1.00
10536;DHT22;5316;49.538;8.352;2023-07-20T19:52:39;24.40;1.00
10536;DHT22;5316;49.538;8.352;2023-07-20T19:55:09;24.40;1.00
10536;DHT22;5316;49.538;8.352;2023-07-20T19:57:36;24.30;1.00
10536;DHT22;5316;49.538;8.352;2023-07-20T20:00:05;24.30;1.00
10536;DHT22;5316;49.538;8.352;2023-07-20T20:02:37;24.30;1.00
10536;DHT22;5316;49.538;8.352;2023-07-20T20:05:06;24.30;1.00
10536;DHT22;5316;49.538;8.352;2023-07-20T20:07:33;24.30;1.00
10536;DHT22;5316;49.538;8.352;2023-07-20T20:10:00;24.30;1.00
10536;DHT22;5316;49.538;8.352;2023-07-20T20:12:27;24.30;1.00
10536;DHT22;5316;49.538;8.352;2023-07-20T20:14:54;24.30;1.00
10536;DHT22;5316;49.538;8.352;2023-07-20T20:17:23;24.30;1.00
10536;DHT22;5316;49.538;8.352;2023-07-20T20:19:49;24.20;1.00
10536;DHT22;5316;49.538;8.352;2023-07-20T20:22:17;24.20;1.00
10536;DHT22;5316;49.538;8.352;2023-07-20T20:24:44;24.10;1.00
10536;DHT22;5316;49.538;8.352;2023-07-20T20:27:11;24.10;1.00
10536;DHT22;5316;49.538;8.352;2023-07-20T20:29:38;24.10;1.00
10536;DHT22;5316;49.538;8.352;2023-07-20T20:32:05;24.00;1.00
10536;DHT22;5316;49.538;8.352;2023-07-20T20:34:33;24.00;1.00
10536;DHT22;5316;49.538;8.352;2023-07-20T20:37:00;24.20;1.00
10536;DHT22;5316;49.538;8.352;2023-07-20T20:39:28;24.00;1.00
10536;DHT22;5316;49.538;8.352;2023-07-20T20:41:55;23.90;1.00
10536;DHT22;5316;49.538;8.352;2023-07-20T20:44:22;23.90;1.00
10536;DHT22;5316;49.538;8.352;2023-07-20T20:46:52;23.80;1.00
10536;DHT22;5316;49.538;8.352;2023-07-20T20:49:26;23.80;1.00
10536;DHT22;5316;49.538;8.352;2023-07-20T20:51:55;24.10;1.00
10536;DHT22;5316;49.538;8.352;2023-07-20T20:54:22;23.70;1.00
10536;DHT22;5316;49.538;8.352;2023-07-20T20:56:50;23.70;1.00
10536;DHT22;5316;49.538;8.352;2023-07-20T20:59:17;23.60;1.00
10536;DHT22;5316;49.538;8.352;2023-07-20T21:01:45;23.60;1.00
10536;DHT22;5316;49.538;8.352;2023-07-20T21:04:13;23.60;1.00
10536;DHT22;5316;49.538;8.352;2023-07-20T21:06:40;23.50;1.00
10536;DHT22;5316;49.538;8.352;2023-07-20T21:09:09;23.50;1.00
10536;DHT22;5316;49.538;8.352;2023-07-20T21:11:36;23.40;1.00
10536;DHT22;5316;49.538;8.352;2023-07-20T21:14:02;23.40;1.00
10536;DHT22;5316;49.538;8.352;2023-07-20T21:16:29;23.40;1.00
10536;DHT22;5316;49.538;8.352;2023-07-20T21:18:56;23.30;1.00
10536;DHT22;5316;49.538;8.352;2023-07-20T21:21:23;23.30;1.00
10536;DHT22;5316;49.538;8.352;2023-07-20T21:23:51;23.30;1.00
10536;DHT22;5316;49.538;8.352;2023-07-20T21:26:20;23.30;1.00
10536;DHT22;5316;49.538;8.352;2023-07-20T21:28:46;23.30;1.00
10536;DHT22;5316;49.538;8.352;2023-07-20T21:31:13;23.30;1.00
10536;DHT22;5316;49.538;8.352;2023-07-20T21:33:40;23.20;1.00
10536;DHT22;5316;49.538;8.352;2023-07-20T21:36:07;23.20;1.00
10536;DHT22;5316;49.538;8.352;2023-07-20T21:38:34;23.20;1.00
10536;DHT22;5316;49.538;8.352;2023-07-20T21:41:04;23.10;1.00
10536;DHT22;5316;49.538;8.352;2023-07-20T21:43:33;23.10;1.00
10536;DHT22;5316;49.538;8.352;2023-07-20T21:46:00;23.10;1.00
10536;DHT22;5316;49.538;8.352;2023-07-20T21:48:27;23.00;1.00
10536;DHT22;5316;49.538;8.352;2023-07-20T21:50:54;23.00;1.00
10536;DHT22;5316;49.538;8.352;2023-07-20T21:53:21;23.00;1.00
10536;DHT22;5316;49.538;8.352;2023-07-20T21:55:48;23.00;1.00
10536;DHT22;5316;49.538;8.352;2023-07-20T21:58:15;23.00;1.00
10536;DHT22;5316;49.538;8.352;2023-07-20T22:00:45;23.10;1.00
10536;DHT22;5316;49.538;8.352;2023-07-20T22:03:16;22.90;1.00
10536;DHT22;5316;49.538;8.352;2023-07-20T22:05:45;22.90;1.00
10536;DHT22;5316;49.538;8.352;2023-07-20T22:08:12;22.90;1.00
10536;DHT22;5316;49.538;8.352;2023-07-20T22:10:39;22.90;1.00
10536;DHT22;5316;49.538;8.352;2023-07-20T22:13:06;22.90;1.00
10536;DHT22;5316;49.538;8.352;2023-07-20T22:15:33;22.80;1.00
10536;DHT22;5316;49.538;8.352;2023-07-20T22:18:02;22.80;1.00
10536;DHT22;5316;49.538;8.352;2023-07-20T22:20:30;22.70;1.00
10536;DHT22;5316;49.538;8.352;2023-07-20T22:22:57;22.70;1.00
10536;DHT22;5316;49.538;8.352;2023-07-20T22:25:25;22.70;1.00
10536;DHT22;5316;49.538;8.352;2023-07-20T22:27:52;22.70;1.00
10536;DHT22;5316;49.538;8.352;2023-07-20T22:30:20;22.60;1.00
10536;DHT22;5316;49.538;8.352;2023-07-20T22:32:49;22.70;1.00
10536;DHT22;5316;49.538;8.352;2023-07-20T22:35:18;22.60;1.00
10536;DHT22;5316;49.538;8.352;2023-07-20T22:37:45;22.60;1.00
10536;DHT22;5316;49.538;8.352;2023-07-20T22:40:16;22.60;1.00
10536;DHT22;5316;49.538;8.352;2023-07-20T22:42:44;22.50;1.00
10536;DHT22;5316;49.538;8.352;2023-07-20T22:45:13;22.50;1.00
10536;DHT22;5316;49.538;8.352;2023-07-20T22:47:43;22.50;1.00
10536;DHT22;5316;49.538;8.352;2023-07-20T22:50:12;22.50;1.00
10536;DHT22;5316;49.538;8.352;2023-07-20T22:52:45;22.40;1.00
10536;DHT22;5316;49.538;8.352;2023-07-20T22:55:13;22.40;1.00
10536;DHT22;5316;49.538;8.352;2023-07-20T22:57:41;22.40;1.00
10536;DHT22;5316;49.538;8.352;2023-07-20T23:00:12;22.40;1.00
10536;DHT22;5316;49.538;8.352;2023-07-20T23:02:43;22.40;1.00
10536;DHT22;5316;49.538;8.352;2023-07-20T23:05:10;22.40;1.00
10536;DHT22;5316;49.538;8.352;2023-07-20T23:07:38;22.40;1.00
10536;DHT22;5316;49.538;8.352;2023-07-20T23:10:09;22.40;1.00
10536;DHT22;5316;49.538;8.352;2023-07-20T23:12:36;22.30;1.00
10536;DHT22;5316;49.538;8.352;2023-07-20T23:15:05;22.30;1.00
10536;DHT22;5316;49.538;8.352;2023-07-20T23:17:33;22.30;1.00
10536;DHT22;5316;49.538;8.352;2023-07-20T23:20:02;22.30;1.00
10536;DHT22;5316;49.538;8.352;2023-07-20T23:22:31;22.30;1.00
10536;DHT22;5316;49.538;8.352;2023-07-20T23:25:01;22.30;8.60
10536;DHT22;5316;49.538;8.352;2023-07-20T23:27:31;22.30;1.00
10536;DHT22;5316;49.538;8.352;2023-07-20T23:30:09;22.30;1.00
10536;DHT22;5316;49.538;8.352;2023-07-20T23:32:37;22.30;4.90
10536;DHT22;5316;49.538;8.352;2023-07-20T23:35:04;22.20;9.50
10536;DHT22;5316;49.538;8.352;2023-07-20T23:37:32;22.20;13.50
10536;DHT22;5316;49.538;8.352;2023-07-20T23:39:59;22.10;31.80
10536;DHT22;5316;49.538;8.352;2023-07-20T23:42:34;22.00;80.80
10536;DHT22;5316;49.538;8.352;2023-07-20T23:45:01;22.00;99.90
10536;DHT22;5316;49.538;8.352;2023-07-20T23:47:29;21.90;97.20
10536;DHT22;5316;49.538;8.352;2023-07-20T23:49:57;21.80;95.80
10536;DHT22;5316;49.538;8.352;2023-07-20T23:52:35;21.80;97.10
10536;DHT22;5316;49.538;8.352;2023-07-20T23:55:04;21.80;99.30
10536;DHT22;5316;49.538;8.352;2023-07-20T23:57:33;21.80;94.40
